logo
Search for airport 
image banner adimage banner adimage banner ad
image banner ad

UNEE - Kemerovo

Located in Kemerovo, Russian Federation

ICAO - UNEE, IATA - KEJ

Data provided by Airmate  

General information

Coordinates: N55°16'12" E86°6'27"
Elevation is 872 feet MSL.
 
View others Airports in Kemerovo Oblast

Operational data

Special qualification required
Current time UTC:
Current local time:
Weather
METAR: UNEE 231800Z 00000MPS 9999 SCT039 19/19 Q1007 R23/CLRD60 NOSIG RMK QFE732
TAF: TAF UNEE 231700Z 2318/2418 13003G08MPS 8000 BKN040CB TX28/2409Z TN15/2323Z TEMPO 2318/2404 0150 FG BKN001 BKN016CB PROB40 TEMPO 2404/2415 -TSRA
View NOTAMs / SUP AIP / TFR affecting this airport [VIEW]
Communications frequencies: [VIEW]

Runways:

RWY identifierQFULength (ft)Width (ft)SurfaceLDA (ft)
0554°10499197CON
23234°10499197CON

Airport contact information

Address: Kemerovo Russian Federation

Satellite view of UNEE